Time;durP1;ratioP1;P1;durP2;ratioP2;P2;SDS_P1;SDS_P2;PMS_P1;PMS_P2;Temp;Humidity;BMP_temperature;BMP_pressure;BME280_temperature;BME280_humidity;BME280_pressure;Samples;Min_cycle;Max_cycle;Signal;HPM_P1;HPM_P2
2021/01/13 00:01:42;;;;;;;13.15;3.58;;;0.90;99.90;;;;;;4956351;29;20031;-87
2021/01/13 00:04:09;;;;;;;7.35;3.42;;;1.00;99.90;;;;;;4958194;28;20032;-87
2021/01/13 00:06:34;;;;;;;4.90;2.97;;;1.00;99.90;;;;;;4956083;29;20027;-88
2021/01/13 00:09:00;;;;;;;5.00;3.13;;;1.00;99.90;;;;;;4956074;29;20126;-88
2021/01/13 00:11:26;;;;;;;6.35;3.10;;;1.00;99.90;;;;;;4956102;29;20039;-88
2021/01/13 00:13:53;;;;;;;5.93;3.38;;;1.10;99.90;;;;;;4957434;28;20056;-87
2021/01/13 00:16:18;;;;;;;5.97;3.13;;;1.10;99.90;;;;;;4957221;28;20499;-87
2021/01/13 00:18:44;;;;;;;6.82;3.17;;;1.10;99.90;;;;;;4956074;29;20023;-87
2021/01/13 00:21:17;;;;;;;4.38;3.13;;;1.10;99.90;;;;;;4955638;29;20031;-88
2021/01/13 00:23:44;;;;;;;8.73;3.58;;;1.10;99.90;;;;;;4955808;29;20027;-87
2021/01/13 00:26:16;;;;;;;8.35;3.75;;;1.10;99.90;;;;;;4955779;29;20549;-87
2021/01/13 00:28:42;;;;;;;9.35;3.92;;;1.10;99.90;;;;;;4956224;29;20356;-87
2021/01/13 00:31:08;;;;;;;6.00;3.00;;;1.10;99.90;;;;;;4956896;28;20086;-87
2021/01/13 00:33:33;;;;;;;7.90;3.47;;;1.20;99.90;;;;;;4955598;29;20059;-87
2021/01/13 00:35:59;;;;;;;6.47;3.33;;;1.20;99.90;;;;;;4955497;28;20019;-87
2021/01/13 00:38:25;;;;;;;6.07;3.30;;;1.30;99.90;;;;;;4955829;28;20023;-87
2021/01/13 00:40:50;;;;;;;5.82;3.00;;;1.30;99.90;;;;;;4954872;29;20051;-87
2021/01/13 00:43:16;;;;;;;8.48;2.85;;;1.30;99.90;;;;;;4955370;29;20360;-87
2021/01/13 00:45:41;;;;;;;7.15;3.20;;;1.30;99.90;;;;;;4955382;29;20498;-87
2021/01/13 00:48:07;;;;;;;5.00;3.25;;;1.30;99.90;;;;;;4955907;29;20144;-88
2021/01/13 00:50:33;;;;;;;7.78;3.15;;;1.20;99.90;;;;;;4955189;29;20030;-88
2021/01/13 00:52:59;;;;;;;6.63;3.00;;;1.30;99.90;;;;;;4955288;29;20030;-87
2021/01/13 00:55:25;;;;;;;3.95;2.78;;;1.30;99.90;;;;;;4956759;28;20023;-88
2021/01/13 00:57:51;;;;;;;7.18;3.42;;;1.30;99.90;;;;;;4955012;29;20034;-88
2021/01/13 01:00:17;;;;;;;10.38;2.97;;;1.30;99.90;;;;;;4955041;29;20098;-88
2021/01/13 01:02:43;;;;;;;5.60;3.00;;;1.30;99.90;;;;;;4956528;28;20023;-87
2021/01/13 01:05:09;;;;;;;4.63;2.50;;;1.30;99.90;;;;;;4955256;29;20571;-88
2021/01/13 01:07:42;;;;;;;5.47;2.78;;;1.30;99.90;;;;;;4955460;29;20035;-88
2021/01/13 01:10:16;;;;;;;5.47;2.55;;;1.30;99.90;;;;;;4956296;28;20498;-88
2021/01/13 01:12:42;;;;;;;6.80;2.58;;;1.30;99.90;;;;;;4956486;28;20019;-87
2021/01/13 01:15:08;;;;;;;10.10;3.10;;;1.30;99.90;;;;;;4954921;29;20471;-88
2021/01/13 01:17:33;;;;;;;7.15;3.03;;;1.30;99.90;;;;;;4954793;29;20019;-88
2021/01/13 01:19:59;;;;;;;5.53;2.60;;;1.30;99.90;;;;;;4956232;28;20054;-87
2021/01/13 01:22:25;;;;;;;9.43;2.75;;;1.30;99.90;;;;;;4954855;29;20118;-88
2021/01/13 01:24:50;;;;;;;3.95;2.15;;;1.30;99.90;;;;;;4954850;29;20039;-88
2021/01/13 01:27:16;;;;;;;3.47;2.35;;;1.30;99.90;;;;;;4954664;29;20023;-88
2021/01/13 01:29:42;;;;;;;8.73;2.75;;;1.30;99.90;;;;;;4954653;29;20364;-88
2021/01/13 01:32:07;;;;;;;5.28;2.72;;;1.30;99.90;;;;;;4954750;29;20066;-88
2021/01/13 01:34:33;;;;;;;5.53;2.35;;;1.30;99.90;;;;;;4954596;29;20023;-88
2021/01/13 01:36:59;;;;;;;8.50;3.03;;;1.40;99.90;;;;;;4954578;28;20030;-88
2021/01/13 01:39:24;;;;;;;4.65;2.53;;;1.40;99.90;;;;;;4955650;28;20050;-88
2021/01/13 01:41:50;;;;;;;6.30;2.70;;;1.40;99.90;;;;;;4955867;28;20479;-88
2021/01/13 01:44:16;;;;;;;5.75;2.65;;;1.40;99.90;;;;;;4954398;29;20031;-88
2021/01/13 01:46:44;;;;;;;9.35;2.55;;;1.40;99.90;;;;;;4955757;28;20023;-87
2021/01/13 01:49:14;;;;;;;13.77;3.10;;;1.40;99.90;;;;;;4954420;29;20435;-88
2021/01/13 01:52:06;;;;;;;6.07;2.88;;;1.40;99.90;;;;;;4955625;28;20067;-88
2021/01/13 01:54:35;;;;;;;7.30;3.30;;;1.40;99.90;;;;;;4955609;28;20023;-88
2021/01/13 01:57:03;;;;;;;4.43;2.53;;;1.40;99.90;;;;;;4954296;29;20502;-88
2021/01/13 01:59:50;;;;;;;4.63;2.50;;;1.40;99.90;;;;;;4954349;29;20031;-88
2021/01/13 02:02:17;;;;;;;5.82;2.15;;;1.40;99.90;;;;;;4954482;29;20023;-88
2021/01/13 02:04:44;;;;;;;6.93;2.47;;;1.40;99.90;;;;;;4955521;28;20062;-87
2021/01/13 02:07:10;;;;;;;6.45;2.80;;;1.40;99.90;;;;;;4955507;28;20368;-87
2021/01/13 02:09:37;;;;;;;8.75;2.70;;;1.40;99.90;;;;;;4955621;28;20030;-88
2021/01/13 02:12:24;;;;;;;5.05;2.38;;;1.40;99.90;;;;;;4954189;29;20114;-87
2021/01/13 02:14:50;;;;;;;5.95;2.20;;;1.40;99.90;;;;;;4954029;29;20024;-88
2021/01/13 02:17:31;;;;;;;6.00;2.08;;;1.40;99.90;;;;;;4954130;29;20118;-88
2021/01/13 02:20:08;;;;;;;4.22;2.10;;;1.40;99.90;;;;;;4954260;29;20110;-88
2021/01/13 02:22:56;;;;;;;10.00;2.30;;;1.40;99.90;;;;;;4954072;29;20027;-88
2021/01/13 02:26:03;;;;;;;9.90;2.38;;;1.30;99.90;;;;;;4953875;29;20019;-88
2021/01/13 02:28:31;;;;;;;4.85;2.30;;;1.30;99.90;;;;;;4953947;29;20498;-88
2021/01/13 02:31:04;;;;;;;2.67;2.28;;;1.30;99.90;;;;;;4954108;29;20028;-88
2021/01/13 02:33:36;;;;;;;6.97;2.47;;;1.30;99.90;;;;;;4953958;29;20051;-88
2021/01/13 02:36:11;;;;;;;7.15;2.17;;;1.30;99.90;;;;;;4955605;28;20046;-88
2021/01/13 02:38:38;;;;;;;9.48;2.92;;;1.30;99.90;;;;;;4953914;29;20395;-88
2021/01/13 02:41:13;;;;;;;5.82;2.85;;;1.30;99.90;;;;;;4953816;29;20513;-88
2021/01/13 02:43:52;;;;;;;5.63;2.65;;;1.30;99.90;;;;;;4954802;29;20448;-88
2021/01/13 02:46:43;;;;;;;5.20;2.40;;;1.40;99.90;;;;;;4954230;29;20479;-88
2021/01/13 02:49:12;;;;;;;5.35;2.40;;;1.40;99.90;;;;;;4938783;29;20027;-87
2021/01/13 02:51:40;;;;;;;4.95;2.47;;;1.40;99.90;;;;;;4955027;28;20027;-88
2021/01/13 02:54:40;;;;;;;3.78;2.20;;;1.40;99.90;;;;;;4953748;29;20113;-88
2021/01/13 02:57:14;;;;;;;6.43;2.28;;;1.40;99.90;;;;;;4955119;28;20498;-88
2021/01/13 02:59:44;;;;;;;7.97;2.53;;;1.40;99.90;;;;;;4953664;29;20114;-87
2021/01/13 03:02:11;;;;;;;5.07;2.25;;;1.40;99.90;;;;;;4955598;28;20034;-88
2021/01/13 03:04:38;;;;;;;4.63;2.40;;;1.40;99.90;;;;;;4957167;29;20199;-87
2021/01/13 03:07:15;;;;;;;6.20;2.50;;;1.40;99.90;;;;;;4957183;29;20031;-88
2021/01/13 03:09:48;;;;;;;4.60;2.50;;;1.30;99.90;;;;;;4958503;28;20031;-88
2021/01/13 03:12:19;;;;;;;4.60;2.30;;;1.30;99.90;;;;;;4957243;29;20082;-87
2021/01/13 03:14:58;;;;;;;4.18;2.55;;;1.30;99.90;;;;;;4957122;29;20750;-88
2021/01/13 03:17:23;;;;;;;5.00;2.58;;;1.20;99.90;;;;;;4957028;29;20090;-87
2021/01/13 03:20:10;;;;;;;11.65;2.95;;;1.20;99.90;;;;;;4958197;28;20035;-87
2021/01/13 03:23:14;;;;;;;6.15;2.85;;;1.20;99.90;;;;;;4957050;29;20027;-87
2021/01/13 03:26:01;;;;;;;7.55;2.35;;;1.10;99.90;;;;;;4958007;29;20063;-87
2021/01/13 03:28:30;;;;;;;6.10;3.00;;;1.10;99.90;;;;;;4958053;28;20106;-87
2021/01/13 03:30:58;;;;;;;8.63;2.65;;;1.00;99.90;;;;;;4956826;29;20028;-87
2021/01/13 03:33:24;;;;;;;7.22;3.20;;;1.00;99.90;;;;;;4956575;29;20046;-87
2021/01/13 03:35:57;;;;;;;8.57;2.90;;;1.00;99.90;;;;;;4956657;28;20067;-87
2021/01/13 03:38:27;;;;;;;6.63;2.60;;;0.90;99.90;;;;;;4958280;28;20023;-87
2021/01/13 03:41:06;;;;;;;6.28;2.58;;;1.00;99.90;;;;;;4956513;29;20047;-87
2021/01/13 03:43:37;;;;;;;5.55;3.15;;;0.90;99.90;;;;;;4958096;28;20128;-87
2021/01/13 03:46:06;;;;;;;9.18;2.97;;;0.90;99.90;;;;;;4956389;29;20114;-87
2021/01/13 03:48:51;;;;;;;4.85;2.58;;;0.90;99.90;;;;;;4957769;28;20027;-87
2021/01/13 03:51:33;;;;;;;;;;;0.90;99.90;;;;;;4957963;28;20079;-87
2021/01/13 03:54:04;;;;;;;9.20;2.65;;;1.00;99.90;;;;;;4956269;29;20266;-87
2021/01/13 03:56:54;;;;;;;5.85;2.90;;;1.00;99.90;;;;;;4956248;29;20023;-87
2021/01/13 03:59:46;;;;;;;9.18;2.83;;;1.00;99.90;;;;;;4956095;29;20023;-87
2021/01/13 04:02:17;;;;;;;9.57;3.22;;;1.00;99.90;;;;;;4956111;29;20430;-87
2021/01/13 04:04:56;;;;;;;5.10;2.05;;;1.00;99.90;;;;;;4955983;29;20094;-87
2021/01/13 04:07:24;;;;;;;7.60;3.10;;;1.00;99.90;;;;;;4957593;28;20051;-87
2021/01/13 04:09:52;;;;;;;8.52;2.97;;;1.00;99.90;;;;;;4957098;28;20027;-87
2021/01/13 04:12:21;;;;;;;3.55;2.33;;;1.00;99.90;;;;;;4955992;29;20027;-86
2021/01/13 04:14:51;;;;;;;5.95;2.83;;;1.10;99.90;;;;;;4956107;28;20431;-87
2021/01/13 04:17:18;;;;;;;4.90;2.58;;;1.10;99.90;;;;;;4957095;28;20494;-87
2021/01/13 04:19:45;;;;;;;6.47;2.88;;;1.10;99.90;;;;;;4955674;29;20027;-87
2021/01/13 04:22:12;;;;;;;6.65;2.45;;;1.10;99.90;;;;;;4955743;29;20038;-88
2021/01/13 04:24:40;;;;;;;3.10;2.22;;;1.10;99.90;;;;;;4957067;28;20057;-87
2021/01/13 04:27:07;;;;;;;4.47;2.22;;;1.10;99.90;;;;;;4956900;28;20648;-87
2021/01/13 04:29:32;;;;;;;7.78;2.95;;;1.20;99.90;;;;;;4955487;29;20062;-86
2021/01/13 04:31:58;;;;;;;9.20;2.55;;;1.10;99.90;;;;;;4955434;29;20479;-87
2021/01/13 04:34:24;;;;;;;6.72;2.38;;;1.10;99.90;;;;;;4955501;29;20106;-87
2021/01/13 04:36:50;;;;;;;4.28;2.38;;;1.20;99.90;;;;;;4956789;28;20082;-87
2021/01/13 04:39:19;;;;;;;3.03;2.25;;;1.30;99.90;;;;;;4955192;29;20443;-87
2021/01/13 04:42:07;;;;;;;5.32;2.45;;;1.30;99.90;;;;;;4955410;29;20108;-87
2021/01/13 04:44:45;;;;;;;4.10;2.55;;;1.30;99.90;;;;;;4955434;29;20031;-87
2021/01/13 04:47:11;;;;;;;4.20;2.55;;;1.30;99.90;;;;;;4955338;29;20051;-87
2021/01/13 04:49:38;;;;;;;3.67;1.95;;;1.20;99.90;;;;;;4956409;28;20027;-87
2021/01/13 04:52:30;;;;;;;4.50;2.13;;;1.20;99.90;;;;;;4955169;29;20023;-87
2021/01/13 04:54:57;;;;;;;5.45;2.17;;;1.30;99.90;;;;;;4955141;29;20038;-87
2021/01/13 04:58:01;;;;;;;4.22;2.40;;;1.20;99.90;;;;;;4955106;29;20110;-87
2021/01/13 05:01:08;;;;;;;5.53;2.78;;;1.30;99.90;;;;;;4913455;29;20066;-88
2021/01/13 05:03:59;;;;;;;4.15;2.90;;;1.30;99.90;;;;;;4954461;29;20035;-87
2021/01/13 05:06:48;;;;;;;8.75;2.90;;;1.20;99.90;;;;;;4956284;28;20028;-88
2021/01/13 05:09:15;;;;;;;4.60;2.67;;;1.20;99.90;;;;;;4954820;29;20035;-87
2021/01/13 05:11:43;;;;;;;5.00;2.35;;;1.20;99.90;;;;;;4954813;29;20043;-87
2021/01/13 05:14:10;;;;;;;2.72;2.17;;;1.20;99.90;;;;;;4956140;28;20034;-87
2021/01/13 05:17:01;;;;;;;5.10;2.70;;;1.30;99.90;;;;;;4955985;28;20030;-87
2021/01/13 05:19:50;;;;;;;4.07;2.20;;;1.30;99.90;;;;;;4955337;29;20027;-87
2021/01/13 05:22:16;;;;;;;3.70;2.20;;;1.30;99.90;;;;;;4956335;29;20035;-87
2021/01/13 05:24:42;;;;;;;5.38;2.25;;;1.40;99.90;;;;;;4954766;28;20033;-87
2021/01/13 05:27:26;;;;;;;7.00;2.80;;;1.40;99.90;;;;;;4954637;29;20031;-88
2021/01/13 05:30:00;;;;;;;4.80;2.30;;;1.40;99.90;;;;;;4954759;29;20118;-87
2021/01/13 05:32:27;;;;;;;8.25;2.30;;;1.30;99.90;;;;;;4954872;29;20023;-87
2021/01/13 05:34:57;;;;;;;5.10;2.55;;;1.30;99.90;;;;;;4954389;29;20031;-87
2021/01/13 05:37:50;;;;;;;7.55;2.75;;;1.40;99.90;;;;;;4954545;28;20047;-87
2021/01/13 05:40:16;;;;;;;4.93;3.00;;;1.40;99.90;;;;;;4944567;29;20054;-87
2021/01/13 05:42:43;;;;;;;7.43;2.60;;;1.40;99.90;;;;;;4954289;29;20122;-87
2021/01/13 05:45:13;;;;;;;5.15;2.65;;;1.30;99.90;;;;;;4954266;29;20035;-86
2021/01/13 05:47:53;;;;;;;11.63;3.53;;;1.30;99.90;;;;;;4954670;29;20491;-86
2021/01/13 05:50:21;;;;;;;9.23;3.15;;;1.30;99.90;;;;;;4954266;29;20502;-86
2021/01/13 05:52:49;;;;;;;6.25;2.75;;;1.20;99.90;;;;;;4954175;29;20019;-86
2021/01/13 05:55:17;;;;;;;6.43;3.20;;;1.20;99.90;;;;;;4954225;29;20373;-85
2021/01/13 05:58:04;;;;;;;6.32;3.20;;;1.20;99.90;;;;;;4954125;29;20027;-86
2021/01/13 06:00:33;;;;;;;5.55;2.70;;;1.30;99.90;;;;;;4954053;29;20027;-86
2021/01/13 06:03:02;;;;;;;8.38;3.53;;;1.30;99.90;;;;;;4955307;28;20019;-86
2021/01/13 06:05:33;;;;;;;4.07;2.15;;;1.30;99.90;;;;;;4953996;29;20030;-86
2021/01/13 06:08:00;;;;;;;4.45;2.90;;;1.20;99.90;;;;;;4953920;29;20027;-86
2021/01/13 06:10:34;;;;;;;8.75;3.38;;;1.30;99.90;;;;;;4953908;29;20427;-87
2021/01/13 06:13:01;;;;;;;;;;;1.30;99.90;;;;;;4954461;29;20478;-88
2021/01/13 06:15:29;;;;;;;7.40;2.95;;;1.30;99.90;;;;;;4955410;28;19934;-88
2021/01/13 06:17:57;;;;;;;4.45;2.67;;;1.30;99.90;;;;;;4954097;29;20027;-88
2021/01/13 06:20:27;;;;;;;7.43;2.67;;;1.40;99.90;;;;;;4953970;29;20063;-88
2021/01/13 06:22:54;;;;;;;5.30;2.90;;;1.30;99.90;;;;;;4955230;28;20027;-88
2021/01/13 06:25:25;;;;;;;7.40;2.80;;;1.30;99.90;;;;;;4955153;28;20027;-87
2021/01/13 06:27:57;;;;;;;4.40;2.45;;;1.40;99.90;;;;;;4953726;29;20031;-88
2021/01/13 06:30:30;;;;;;;8.38;3.25;;;1.30;99.90;;;;;;4955391;28;20019;-88
2021/01/13 06:33:05;;;;;;;4.72;2.80;;;1.30;99.90;;;;;;4954005;29;20539;-88
2021/01/13 06:35:42;;;;;;;6.35;2.90;;;1.20;99.90;;;;;;4955093;28;20031;-88
2021/01/13 06:38:25;;;;;;;7.97;3.40;;;1.20;99.90;;;;;;4956007;28;20483;-86
2021/01/13 06:41:01;;;;;;;11.68;3.80;;;1.10;99.90;;;;;;4958686;28;20059;-88
2021/01/13 06:43:28;;;;;;;5.68;3.00;;;1.10;99.90;;;;;;4957734;29;20092;-88
2021/01/13 06:45:54;;;;;;;6.55;2.83;;;1.10;99.90;;;;;;4957581;29;20367;-88
2021/01/13 06:48:25;;;;;;;3.80;2.58;;;1.10;99.90;;;;;;4957707;29;20455;-88
2021/01/13 06:50:59;;;;;;;3.45;2.00;;;1.10;99.90;;;;;;4958662;28;20035;-88
2021/01/13 06:53:35;;;;;;;12.70;3.65;;;1.20;99.90;;;;;;4958653;28;20023;-87
2021/01/13 06:56:09;;;;;;;9.02;3.75;;;1.20;99.90;;;;;;4957391;29;20041;-88
2021/01/13 06:58:37;;;;;;;10.02;3.35;;;1.10;99.90;;;;;;4957352;29;20059;-87
2021/01/13 07:01:04;;;;;;;8.75;2.95;;;1.10;99.90;;;;;;4957260;29;20506;-88
2021/01/13 07:03:31;;;;;;;5.03;2.85;;;1.10;99.90;;;;;;4957403;29;20055;-88
2021/01/13 07:06:09;;;;;;;8.32;3.70;;;1.00;99.90;;;;;;4957026;29;20558;-87
2021/01/13 07:08:35;;;;;;;7.45;3.58;;;1.00;99.90;;;;;;4958357;28;20035;-87
2021/01/13 07:11:09;;;;;;;10.80;3.90;;;0.90;99.90;;;;;;4957127;29;20398;-88
2021/01/13 07:13:40;;;;;;;10.20;3.70;;;0.90;99.90;;;;;;4956961;29;20090;-87
2021/01/13 07:16:07;;;;;;;7.40;2.90;;;0.80;99.90;;;;;;4956922;29;20077;-88
2021/01/13 07:18:37;;;;;;;11.07;3.90;;;0.80;99.90;;;;;;4958105;28;20032;-87
2021/01/13 07:21:07;;;;;;;9.15;3.35;;;0.70;99.90;;;;;;4958005;28;20030;-87
2021/01/13 07:23:34;;;;;;;10.32;3.42;;;0.70;99.90;;;;;;4956834;29;20031;-88
2021/01/13 07:26:00;;;;;;;14.02;5.10;;;0.70;99.90;;;;;;4956765;29;20031;-87
2021/01/13 07:28:26;;;;;;;10.85;4.10;;;0.70;99.90;;;;;;4957867;28;20081;-87
2021/01/13 07:30:54;;;;;;;12.75;4.28;;;0.80;99.90;;;;;;4956609;29;20106;-87
2021/01/13 07:33:20;;;;;;;14.20;5.22;;;0.90;99.90;;;;;;4957821;28;20023;-87
2021/01/13 07:35:48;;;;;;;6.85;3.30;;;0.90;99.90;;;;;;4956683;29;20027;-87
2021/01/13 07:38:17;;;;;;;15.38;3.55;;;0.90;99.90;;;;;;4956475;28;20027;-88
2021/01/13 07:40:54;;;;;;;7.72;3.25;;;1.00;99.90;;;;;;4956280;29;20054;-87
2021/01/13 07:43:38;;;;;;;6.47;3.58;;;1.00;99.90;;;;;;4956413;29;20042;-87
2021/01/13 07:46:15;;;;;;;8.48;3.10;;;0.90;99.90;;;;;;4957619;28;20027;-87
2021/01/13 07:49:20;;;;;;;12.70;3.78;;;0.80;99.90;;;;;;4957366;28;20039;-87
2021/01/13 07:51:57;;;;;;;7.45;3.20;;;0.80;99.90;;;;;;4956244;29;20078;-87
2021/01/13 07:54:26;;;;;;;7.68;3.28;;;0.80;99.90;;;;;;4956212;29;20027;-87
2021/01/13 07:56:55;;;;;;;8.13;3.85;;;0.90;99.90;;;;;;4956093;29;20461;-87
2021/01/13 07:59:31;;;;;;;6.65;3.08;;;0.90;99.90;;;;;;4957292;28;20031;-87
2021/01/13 08:02:31;;;;;;;9.60;4.13;;;0.90;99.90;;;;;;4957429;28;20034;-87
2021/01/13 08:05:16;;;;;;;6.80;3.65;;;0.90;99.90;;;;;;4925821;29;20039;-87
2021/01/13 08:07:42;;;;;;;;;;;1.00;99.90;;;;;;4958032;28;20130;-87
2021/01/13 08:10:09;;;;;;;7.60;3.70;;;1.10;99.90;;;;;;4956102;29;20009;-87
2021/01/13 08:13:09;;;;;;;7.78;3.45;;;1.20;99.90;;;;;;4956431;29;20053;-89
2021/01/13 08:16:06;;;;;;;6.68;3.25;;;1.40;99.90;;;;;;4956582;29;20020;-89
2021/01/13 08:18:55;;;;;;;9.90;3.53;;;1.50;99.90;;;;;;4957139;29;20123;-86
2021/01/13 08:21:54;;;;;;;6.53;3.33;;;1.50;99.90;;;;;;4956160;29;20024;-87
2021/01/13 08:24:27;;;;;;;9.32;3.75;;;1.50;99.90;;;;;;4958216;28;20022;-87
2021/01/13 08:26:58;;;;;;;14.00;4.18;;;1.60;99.90;;;;;;4957749;28;20023;-88
2021/01/13 08:29:27;;;;;;;10.70;3.65;;;1.60;99.90;;;;;;4955863;29;20031;-88
2021/01/13 08:32:08;;;;;;;8.27;3.20;;;1.80;99.90;;;;;;4956813;28;20035;-88
2021/01/13 08:34:45;;;;;;;6.30;3.28;;;2.00;99.90;;;;;;4955597;29;20062;-88
2021/01/13 08:37:12;;;;;;;6.40;3.20;;;2.40;99.90;;;;;;4955493;28;20055;-89
2021/01/13 08:39:38;;;;;;;9.05;3.15;;;2.50;99.90;;;;;;4956976;28;20074;-90
2021/01/13 08:42:29;;;;;;;10.75;3.35;;;2.70;99.90;;;;;;4957228;28;20395;-90
2021/01/13 08:44:56;;;;;;;9.95;3.20;;;2.80;99.90;;;;;;4957142;28;20023;-89
2021/01/13 08:47:26;;;;;;;8.35;2.70;;;2.90;99.90;;;;;;4955662;29;20504;-90
2021/01/13 08:50:12;;;;;;;7.70;3.03;;;2.90;99.90;;;;;;4957046;28;20023;-90
2021/01/13 08:52:49;;;;;;;13.20;3.17;;;3.20;99.90;;;;;;4957348;28;20507;-90
2021/01/13 08:55:16;;;;;;;6.82;2.83;;;3.50;99.90;;;;;;4955799;29;20029;-89
2021/01/13 08:57:55;;;;;;;6.85;3.00;;;3.40;99.90;;;;;;4955664;29;20031;-89
2021/01/13 09:00:23;;;;;;;8.50;2.75;;;3.30;99.90;;;;;;4955311;28;20062;-90
2021/01/13 09:03:03;;;;;;;9.50;2.97;;;3.30;99.90;;;;;;4956510;29;20375;-90
2021/01/13 09:05:34;;;;;;;6.75;2.90;;;3.10;99.90;;;;;;4957493;28;20433;-90
2021/01/13 09:08:02;;;;;;;8.27;3.47;;;3.10;99.90;;;;;;4956144;29;20035;-90
2021/01/13 09:10:50;;;;;;;13.23;4.93;;;2.90;99.90;;;;;;4956995;28;20027;-90
2021/01/13 09:13:43;;;;;;;7.97;3.85;;;2.80;99.90;;;;;;4955759;29;20050;-90
2021/01/13 09:16:30;;;;;;;13.90;4.32;;;2.70;99.90;;;;;;4955365;29;20091;-90
2021/01/13 09:19:03;;;;;;;10.02;3.33;;;2.50;99.90;;;;;;4955312;29;20031;-89
2021/01/13 09:21:34;;;;;;;9.35;3.22;;;2.50;99.90;;;;;;4955987;29;20031;-89
2021/01/13 09:24:01;;;;;;;8.65;3.33;;;2.50;99.90;;;;;;4955402;29;20030;-89
2021/01/13 09:26:32;;;;;;;6.28;2.65;;;2.50;99.90;;;;;;4955300;29;20395;-90
2021/01/13 09:29:04;;;;;;;8.10;2.70;;;2.50;99.90;;;;;;4955572;29;20031;-89
2021/01/13 09:31:30;;;;;;;8.88;2.60;;;2.60;99.90;;;;;;4955190;29;20035;-89
2021/01/13 09:33:57;;;;;;;6.95;2.55;;;2.60;99.90;;;;;;4955057;29;20030;-89
2021/01/13 09:36:23;;;;;;;8.38;2.90;;;2.60;99.90;;;;;;4956138;28;20019;-89
2021/01/13 09:38:49;;;;;;;8.45;2.40;;;2.50;99.90;;;;;;4955062;29;20051;-89
2021/01/13 09:41:28;;;;;;;7.82;2.83;;;2.40;99.90;;;;;;4954581;29;20050;-89
2021/01/13 09:44:12;;;;;;;13.88;3.00;;;2.40;99.90;;;;;;4955147;29;20082;-85
2021/01/13 09:46:38;;;;;;;8.52;2.53;;;2.40;99.90;;;;;;4954998;29;20379;-89
2021/01/13 09:49:11;;;;;;;7.22;2.55;;;2.40;99.90;;;;;;4954565;29;20130;-89
2021/01/13 09:51:38;;;;;;;7.30;2.80;;;2.40;99.90;;;;;;4954941;29;20443;-89
2021/01/13 09:54:06;;;;;;;12.35;2.92;;;2.40;99.90;;;;;;4954801;29;20082;-88
2021/01/13 09:56:33;;;;;;;8.45;2.80;;;2.60;99.90;;;;;;4954555;29;20375;-88
2021/01/13 09:59:04;;;;;;;12.77;2.60;;;2.60;99.90;;;;;;4954755;29;20050;-88
2021/01/13 10:01:32;;;;;;;6.50;2.40;;;2.60;99.90;;;;;;4955623;28;20123;-88
2021/01/13 10:04:02;;;;;;;7.05;3.25;;;2.70;99.90;;;;;;4954367;29;20024;-88
2021/01/13 10:06:30;;;;;;;5.57;2.17;;;2.60;99.90;;;;;;4954777;29;20027;-88
2021/01/13 10:09:07;;;;;;;8.15;2.83;;;2.60;99.90;;;;;;4954350;29;20035;-88
2021/01/13 10:11:33;;;;;;;7.90;2.40;;;2.70;99.90;;;;;;4954716;28;20019;-89
2021/01/13 10:14:02;;;;;;;10.23;2.45;;;3.00;99.90;;;;;;4957978;29;20498;-88
2021/01/13 10:16:29;;;;;;;10.43;2.67;;;3.00;99.90;;;;;;4958588;29;20020;-88
2021/01/13 10:19:03;;;;;;;4.97;2.58;;;3.00;99.90;;;;;;4958857;29;20031;-89
2021/01/13 10:21:36;;;;;;;8.50;2.65;;;3.00;99.90;;;;;;4958415;29;20028;-88
2021/01/13 10:24:13;;;;;;;3.17;1.88;;;3.10;99.90;;;;;;4957919;29;20035;-88
2021/01/13 10:26:40;;;;;;;6.53;2.70;;;3.00;99.90;;;;;;4958190;29;20042;-88
2021/01/13 10:29:08;;;;;;;13.18;2.78;;;3.00;99.90;;;;;;4957792;29;20027;-88
2021/01/13 10:31:34;;;;;;;7.72;2.75;;;3.00;99.90;;;;;;4957751;29;20475;-88
2021/01/13 10:34:01;;;;;;;10.57;3.08;;;3.00;99.90;;;;;;4957954;29;20023;-87
2021/01/13 10:36:31;;;;;;;9.02;2.75;;;2.90;99.90;;;;;;4957696;28;20027;-87
2021/01/13 10:39:13;;;;;;;10.00;2.78;;;2.90;99.90;;;;;;4957703;29;20028;-87
2021/01/13 10:41:44;;;;;;;15.90;3.47;;;2.90;99.90;;;;;;4957630;29;20034;-87
2021/01/13 10:44:20;;;;;;;11.23;2.95;;;2.70;99.90;;;;;;4958228;29;20468;-87
2021/01/13 10:47:03;;;;;;;6.40;3.00;;;2.60;99.90;;;;;;4957816;29;20033;-87
2021/01/13 10:49:34;;;;;;;5.45;2.35;;;2.70;99.90;;;;;;4957340;29;20059;-87
2021/01/13 10:52:13;;;;;;;6.55;2.20;;;2.60;99.90;;;;;;4957367;29;20098;-86
2021/01/13 10:54:50;;;;;;;6.68;2.42;;;2.50;99.90;;;;;;4957307;29;20059;-86
2021/01/13 10:57:25;;;;;;;6.90;2.70;;;2.50;99.90;;;;;;4957253;29;20030;-86
2021/01/13 11:00:07;;;;;;;6.60;2.50;;;2.50;99.90;;;;;;4957163;29;20062;-86
2021/01/13 11:02:33;;;;;;;8.52;2.15;;;2.60;99.90;;;;;;4957106;29;20504;-86
2021/01/13 11:05:00;;;;;;;9.23;2.30;;;2.70;99.90;;;;;;4957208;29;20100;-85
2021/01/13 11:07:37;;;;;;;7.07;2.50;;;2.80;99.90;;;;;;4956973;29;20027;-86
2021/01/13 11:10:04;;;;;;;5.15;2.33;;;2.80;99.90;;;;;;4956919;29;20086;-86
2021/01/13 11:12:30;;;;;;;12.77;2.50;;;2.80;99.90;;;;;;4956832;29;20027;-86
2021/01/13 11:14:56;;;;;;;5.05;2.08;;;2.90;99.90;;;;;;4956820;29;20493;-86
2021/01/13 11:17:24;;;;;;;12.15;2.30;;;3.00;99.90;;;;;;4958044;28;20030;-86
2021/01/13 11:19:53;;;;;;;12.60;3.00;;;3.00;99.90;;;;;;4956765;29;20028;-86
2021/01/13 11:22:45;;;;;;;8.55;2.90;;;2.90;99.90;;;;;;4957945;28;20491;-86
2021/01/13 11:25:39;;;;;;;11.93;2.72;;;3.10;99.90;;;;;;4956459;29;20031;-86
2021/01/13 11:28:10;;;;;;;10.45;3.50;;;3.10;99.90;;;;;;4956865;29;20027;-86
2021/01/13 11:30:50;;;;;;;17.38;4.95;;;3.20;99.90;;;;;;4957974;28;20028;-86
2021/01/13 11:33:19;;;;;;;7.32;2.72;;;3.10;99.90;;;;;;4956524;29;20395;-86
2021/01/13 11:35:47;;;;;;;10.15;3.05;;;3.10;99.90;;;;;;4957727;28;20051;-86
2021/01/13 11:38:34;;;;;;;5.00;2.50;;;2.90;99.90;;;;;;4957635;28;20090;-87
2021/01/13 11:41:39;;;;;;;6.43;2.03;;;2.90;99.90;;;;;;4957527;28;20046;-86
2021/01/13 11:44:26;;;;;;;10.23;2.33;;;3.00;99.90;;;;;;4956431;29;20027;-87
2021/01/13 11:47:18;;;;;;;6.60;2.72;;;3.00;99.90;;;;;;4956361;29;20380;-86
2021/01/13 11:49:59;;;;;;;6.40;2.10;;;3.20;99.90;;;;;;4957900;28;20023;-87
2021/01/13 11:52:32;;;;;;;6.65;2.10;;;3.60;99.90;;;;;;4956256;29;20027;-87
2021/01/13 11:54:58;;;;;;;6.07;2.08;;;3.90;99.90;;;;;;4957716;28;20019;-86
2021/01/13 11:57:34;;;;;;;7.30;1.70;;;4.20;99.90;;;;;;4956474;29;20051;-86
2021/01/13 12:00:18;;;;;;;5.25;1.80;;;4.50;99.90;;;;;;4956112;29;20164;-87
2021/01/13 12:02:52;;;;;;;6.60;2.30;;;4.70;99.90;;;;;;4956182;29;20062;-86
2021/01/13 12:05:32;;;;;;;7.50;2.00;;;4.90;99.90;;;;;;4957333;28;20030;-87
2021/01/13 12:08:09;;;;;;;7.40;1.70;;;4.50;99.90;;;;;;4956172;29;20050;-87
2021/01/13 12:10:42;;;;;;;7.18;1.80;;;4.30;99.90;;;;;;4956014;29;20114;-86
2021/01/13 12:13:12;;;;;;;3.90;2.03;;;3.90;99.90;;;;;;4957357;28;20034;-87
2021/01/13 12:15:47;;;;;;;7.40;2.47;;;3.70;99.90;;;;;;4956232;29;20118;-86
2021/01/13 12:18:23;;;;;;;6.05;2.10;;;3.60;99.90;;;;;;4955897;29;20023;-86
2021/01/13 12:20:51;;;;;;;6.15;1.52;;;3.50;99.90;;;;;;4956243;29;20394;-86
2021/01/13 12:23:19;;;;;;;6.85;2.28;;;3.40;99.90;;;;;;4957221;28;20034;-86
2021/01/13 12:25:46;;;;;;;9.82;1.50;;;3.50;99.90;;;;;;4955831;29;20027;-87
2021/01/13 12:28:12;;;;;;;6.82;1.90;;;3.80;99.90;;;;;;4955698;29;20039;-86
2021/01/13 12:30:59;;;;;;;8.48;2.03;;;3.90;99.90;;;;;;4955751;29;20029;-86
2021/01/13 12:33:25;;;;;;;4.82;1.60;;;4.50;99.90;;;;;;4955652;29;20059;-86
2021/01/13 12:35:51;;;;;;;9.75;1.80;;;4.70;99.90;;;;;;4954590;28;20030;-87
2021/01/13 12:38:16;;;;;;;6.70;1.13;;;6.30;99.90;;;;;;4956785;28;20034;-87
2021/01/13 12:40:42;;;;;;;4.00;1.30;;;6.80;99.90;;;;;;4955335;29;20047;-87
2021/01/13 12:43:12;;;;;;;4.75;1.40;;;6.70;99.90;;;;;;4956640;28;20434;-86
2021/01/13 12:45:37;;;;;;;7.32;2.60;;;7.10;99.90;;;;;;4956981;28;20023;-87
2021/01/13 12:48:03;;;;;;;6.93;1.50;;;7.90;99.90;;;;;;4955323;29;20031;-87
2021/01/13 12:50:29;;;;;;;4.63;1.63;;;8.70;99.90;;;;;;4956430;28;20517;-87
2021/01/13 12:52:55;;;;;;;5.45;1.38;;;9.60;99.90;;;;;;4955303;29;20027;-86
2021/01/13 12:55:20;;;;;;;3.65;1.10;;;8.10;99.90;;;;;;4955185;29;20033;-87
2021/01/13 12:57:46;;;;;;;10.48;1.58;;;7.10;99.90;;;;;;4955036;29;20498;-86
2021/01/13 13:00:12;;;;;;;8.48;1.40;;;5.70;99.90;;;;;;4954947;29;20134;-86
2021/01/13 13:02:39;;;;;;;4.20;1.60;;;4.60;99.90;;;;;;4954938;29;20027;-86
2021/01/13 13:05:06;;;;;;;4.57;1.55;;;4.70;99.90;;;;;;4956463;28;20062;-87
2021/01/13 13:07:36;;;;;;;4.88;1.60;;;4.80;99.90;;;;;;4954871;29;20038;-87
2021/01/13 13:10:02;;;;;;;5.60;1.45;;;5.10;99.90;;;;;;4954963;29;20035;-86
2021/01/13 13:12:28;;;;;;;5.03;1.85;;;4.90;99.90;;;;;;4956070;28;20019;-86
2021/01/13 13:14:54;;;;;;;8.80;1.70;;;5.50;99.90;;;;;;4956038;29;20032;-87
2021/01/13 13:17:21;;;;;;;6.10;1.70;;;6.60;99.90;;;;;;4954832;29;20107;-87
2021/01/13 13:19:46;;;;;;;7.85;1.40;;;7.80;99.90;;;;;;4954746;29;20039;-89
2021/01/13 13:22:12;;;;;;;8.82;1.60;;;8.30;99.90;;;;;;4954957;29;20027;-88
2021/01/13 13:24:38;;;;;;;4.75;1.52;;;9.30;99.90;;;;;;4954963;29;20084;-87